Terminal Aerodrome Forecast
Issued by NWS

Home | Current Version | Previous Version | Text Only | Print | Product List | Glossary On
Versions: 1 2 3 4 5 6 7 8 9 10 11 12 13 14 15
214
FTUS44 KBMX 270520
TAFTOI
TAF
KTOI 270520Z 2706/2806 00000KT P6SM SKC
     FM271000 00000KT 4SM BR FEW250
     FM271300 04005KT P6SM FEW150=

USA.gov is the U.S. government's official web portal to all federal, state and local government web resources and services.